Time;durP1;ratioP1;P1;durP2;ratioP2;P2;SDS_P1;SDS_P2;PMS_P1;PMS_P2;Temp;Humidity;BMP_temperature;BMP_pressure;BME280_temperature;BME280_humidity;BME280_pressure;Samples;Min_cycle;Max_cycle;Signal;HPM_P1;HPM_P2
2023/12/05 00:01:02;;;;;;;62.97;29.05;;;;;;;-1.53;100.00;95779.19;5058673;28;20052;-69
2023/12/05 00:03:28;;;;;;;71.03;31.98;;;;;;;-1.71;100.00;95764.91;5066502;28;20071;-72
2023/12/05 00:05:53;;;;;;;72.75;30.50;;;;;;;-1.59;100.00;95775.84;5073143;28;20040;-70
2023/12/05 00:08:18;;;;;;;63.17;28.38;;;;;;;-1.44;100.00;95773.81;5059412;28;20044;-69
2023/12/05 00:10:44;;;;;;;58.22;26.67;;;;;;;-1.27;100.00;95773.09;5060778;28;20028;-69
2023/12/05 00:13:10;;;;;;;66.47;27.33;;;;;;;-1.28;100.00;95774.19;5038926;28;20558;-70
2023/12/05 00:15:36;;;;;;;60.53;25.70;;;;;;;-1.33;100.00;95759.03;5059709;28;20043;-70
2023/12/05 00:18:01;;;;;;;58.38;26.65;;;;;;;-1.30;100.00;95742.25;5050690;28;20458;-70
2023/12/05 00:20:27;;;;;;;63.42;27.88;;;;;;;-1.31;100.00;95748.75;5057130;28;20044;-70
2023/12/05 00:22:52;;;;;;;62.67;26.75;;;;;;;-1.21;100.00;95740.38;5066085;28;20047;-68
2023/12/05 00:25:18;;;;;;;59.17;28.00;;;;;;;-1.37;100.00;95737.38;5060454;28;20032;-68
2023/12/05 00:27:44;;;;;;;56.22;26.60;;;;;;;-1.20;100.00;95752.72;5059637;28;20054;-71
2023/12/05 00:30:09;;;;;;;63.63;27.00;;;;;;;-1.17;100.00;95745.91;5040439;28;20399;-70
2023/12/05 00:32:35;;;;;;;59.53;27.48;;;;;;;-1.19;100.00;95748.13;5069160;28;20047;-72
2023/12/05 00:35:00;;;;;;;62.42;27.15;;;;;;;-1.19;100.00;95742.75;5070029;28;20036;-70
2023/12/05 00:37:26;;;;;;;69.78;28.40;;;;;;;-1.37;100.00;95741.94;5054597;28;20503;-69
2023/12/05 00:39:51;;;;;;;66.85;27.73;;;;;;;-1.44;100.00;95753.16;5061101;28;20311;-70
2023/12/05 00:42:16;;;;;;;74.43;29.80;;;;;;;-1.38;100.00;95741.16;5043772;28;20051;-69
2023/12/05 00:44:42;;;;;;;60.47;26.95;;;;;;;-1.10;100.00;95756.97;5070724;28;20119;-69
2023/12/05 00:47:07;;;;;;;65.55;28.27;;;;;;;-1.13;100.00;95767.56;5076091;28;20035;-69
2023/12/05 00:49:35;;;;;;;67.30;27.95;;;;;;;-1.23;100.00;95777.53;5070940;28;20076;-69
2023/12/05 00:52:01;;;;;;;58.70;26.15;;;;;;;-0.97;100.00;95777.56;5073286;28;20032;-69
2023/12/05 00:54:26;;;;;;;59.88;27.10;;;;;;;-1.05;100.00;95785.63;5065684;28;20047;-69
2023/12/05 00:56:52;;;;;;;59.38;26.77;;;;;;;-0.99;100.00;95793.22;5076130;28;20040;-70
2023/12/05 00:59:17;;;;;;;61.45;26.88;;;;;;;-0.85;100.00;95786.91;5043835;28;20041;-69
2023/12/05 01:01:42;;;;;;;66.40;27.85;;;;;;;-1.02;100.00;95804.59;5060264;28;20036;-69
2023/12/05 01:04:08;;;;;;;69.07;28.45;;;;;;;-1.14;100.00;95785.59;5068402;28;20125;-68
2023/12/05 01:06:33;;;;;;;67.10;28.38;;;;;;;-1.23;100.00;95777.53;5079530;28;20051;-69
2023/12/05 01:08:58;;;;;;;64.28;29.00;;;;;;;-1.29;100.00;95783.38;5074450;28;20064;-69
2023/12/05 01:11:24;;;;;;;64.15;26.92;;;;;;;-1.19;100.00;95789.25;5062268;28;20067;-68
2023/12/05 01:13:49;;;;;;;70.90;29.08;;;;;;;-1.38;100.00;95773.38;5065604;28;20032;-70
2023/12/05 01:16:15;;;;;;;65.97;29.13;;;;;;;-1.49;100.00;95784.75;5081860;28;20056;-69
2023/12/05 01:18:40;;;;;;;73.60;29.80;;;;;;;-1.61;100.00;95802.22;5066314;28;20056;-71
2023/12/05 01:21:06;;;;;;;72.47;29.17;;;;;;;-1.54;100.00;95801.78;5069316;28;20051;-70
2023/12/05 01:23:31;;;;;;;69.30;30.15;;;;;;;-1.56;100.00;95804.75;5082681;28;20475;-71
2023/12/05 01:25:56;;;;;;;81.10;32.13;;;;;;;-1.71;100.00;95797.13;5086225;28;20072;-69
2023/12/05 01:28:22;;;;;;;93.15;33.85;;;;;;;-1.68;100.00;95803.78;5066542;28;20511;-68
2023/12/05 01:30:47;;;;;;;78.07;33.63;;;;;;;-1.65;100.00;95795.09;5074557;28;20107;-70
2023/12/05 01:33:12;;;;;;;88.30;34.55;;;;;;;-1.68;100.00;95791.13;5076540;28;20115;-70
2023/12/05 01:35:38;;;;;;;89.60;35.00;;;;;;;-1.62;100.00;95805.19;5078442;28;20032;-70
2023/12/05 01:38:03;;;;;;;95.07;35.83;;;;;;;-1.61;100.00;95802.22;5083068;28;20028;-69
2023/12/05 01:40:28;;;;;;;100.75;35.72;;;;;;;-1.45;100.00;95810.66;5078516;28;20036;-70
2023/12/05 01:42:54;;;;;;;93.47;35.00;;;;;;;-1.27;100.00;95813.41;5090934;28;20385;-70
2023/12/05 01:45:19;;;;;;;98.75;34.83;;;;;;;-1.38;100.00;95800.25;5087092;28;20044;-69
2023/12/05 01:47:45;;;;;;;103.20;36.75;;;;;;;-1.49;100.00;95800.84;5085486;28;20122;-69
2023/12/05 01:50:18;;;;;;;108.70;38.33;;;;;;;-1.52;100.00;95791.50;5073172;28;20028;-70
2023/12/05 01:52:51;;;;;;;111.45;42.60;;;;;;;-1.59;100.00;95783.88;5077124;28;20398;-70
2023/12/05 01:55:17;;;;;;;102.55;37.85;;;;;;;-1.45;100.00;95785.69;5063725;28;20047;-71
2023/12/05 01:57:45;;;;;;;102.95;37.33;;;;;;;-1.33;100.00;95793.13;5085804;28;20074;-70
2023/12/05 02:00:11;;;;;;;100.30;35.22;;;;;;;-1.36;100.00;95791.88;5080116;28;20068;-70
2023/12/05 02:02:37;;;;;;;94.72;35.58;;;;;;;-1.33;100.00;95793.94;5076265;28;20045;-70
2023/12/05 02:05:03;;;;;;;102.13;35.88;;;;;;;-1.32;100.00;95786.69;5076175;28;20039;-67
2023/12/05 02:07:30;;;;;;;106.38;38.13;;;;;;;-1.47;100.00;95787.91;5063597;28;20044;-70
2023/12/05 02:09:55;;;;;;;100.50;39.15;;;;;;;-1.49;100.00;95792.78;5073167;28;20051;-71
2023/12/05 02:12:21;;;;;;;107.00;39.78;;;;;;;-1.52;100.00;95777.28;5076751;28;20491;-71
2023/12/05 02:14:46;;;;;;;115.82;41.17;;;;;;;-1.56;100.00;95777.91;5076683;28;20043;-68
2023/12/05 02:17:24;;;;;;;115.72;38.28;;;;;;;-1.58;100.00;95784.72;5062505;28;20058;-70
2023/12/05 02:19:58;;;;;;;110.72;39.97;;;;;;;-1.63;100.00;95782.16;5069893;28;20579;-71
2023/12/05 02:22:32;;;;;;;113.57;39.47;;;;;;;-1.60;100.00;95785.00;5073453;28;20528;-71
2023/12/05 02:25:25;;;;;;;121.15;42.92;;;;;;;-1.70;100.00;95771.84;5068806;28;20043;-70
2023/12/05 02:27:51;;;;;;;111.18;41.25;;;;;;;-1.62;100.00;95775.66;5050000;28;20049;-70
2023/12/05 02:30:16;;;;;;;115.53;39.60;;;;;;;-1.66;100.00;95782.75;5051695;28;20186;-69
2023/12/05 02:32:42;;;;;;;117.53;42.00;;;;;;;-1.78;100.00;95761.91;5072742;28;20237;-71
2023/12/05 02:35:08;;;;;;;130.77;41.50;;;;;;;-1.81;100.00;95768.66;5064200;28;20039;-70
2023/12/05 02:38:05;;;;;;;120.05;42.45;;;;;;;-1.84;100.00;95766.59;5071009;28;20047;-70
2023/12/05 02:40:46;;;;;;;131.10;42.45;;;;;;;-1.86;100.00;95765.31;5061861;28;20391;-71
2023/12/05 02:43:15;;;;;;;108.97;39.55;;;;;;;-1.78;100.00;95772.63;5063620;28;20048;-69
2023/12/05 02:45:42;;;;;;;119.18;42.20;;;;;;;-1.79;100.00;95753.03;5079389;28;20044;-68
2023/12/05 02:48:11;;;;;;;122.63;40.75;;;;;;;-1.90;100.00;95745.56;5070576;28;20035;-70
2023/12/05 02:50:36;;;;;;;124.70;42.05;;;;;;;-1.94;100.00;95737.34;5066208;28;20466;-70
2023/12/05 02:53:02;;;;;;;118.60;40.22;;;;;;;-1.95;100.00;95754.53;5075983;28;20033;-67
2023/12/05 02:55:27;;;;;;;128.13;42.10;;;;;;;-2.01;100.00;95753.09;5048274;28;20051;-69
2023/12/05 02:57:54;;;;;;;130.00;40.83;;;;;;;-2.02;100.00;95746.94;5078790;28;20132;-71
2023/12/05 03:00:19;;;;;;;130.85;43.35;;;;;;;-2.06;100.00;95754.00;5063155;28;20164;-69
2023/12/05 03:02:44;;;;;;;135.25;42.75;;;;;;;-2.08;100.00;95745.50;5054126;28;20060;-69
2023/12/05 03:05:10;;;;;;;125.57;41.30;;;;;;;-2.10;100.00;95755.75;5077329;28;20043;-69
2023/12/05 03:07:36;;;;;;;142.68;43.60;;;;;;;-2.19;100.00;95754.91;5072749;28;20047;-69
2023/12/05 03:10:03;;;;;;;118.68;40.78;;;;;;;-2.22;100.00;95750.16;5075966;28;20049;-67
2023/12/05 03:12:31;;;;;;;116.88;41.53;;;;;;;-2.18;100.00;95741.19;5068338;28;20043;-69
2023/12/05 03:14:57;;;;;;;119.35;40.80;;;;;;;-2.14;100.00;95739.47;5072885;28;20132;-69
2023/12/05 03:17:22;;;;;;;122.70;42.13;;;;;;;-2.22;100.00;95731.38;5075227;28;20539;-69
2023/12/05 03:19:47;;;;;;;121.45;39.17;;;;;;;-2.26;100.00;95739.25;5054795;28;20044;-69
2023/12/05 03:22:13;;;;;;;109.60;40.63;;;;;;;-2.28;100.00;95736.09;5070593;28;20335;-73
2023/12/05 03:24:38;;;;;;;126.95;44.17;;;;;;;-2.28;100.00;95733.41;5078317;28;20404;-69
2023/12/05 03:27:03;;;;;;;137.63;43.97;;;;;;;-2.32;100.00;95727.84;5065158;28;20037;-68
2023/12/05 03:29:29;;;;;;;121.47;42.78;;;;;;;-2.27;100.00;95726.13;5060279;28;20040;-69
2023/12/05 03:31:54;;;;;;;119.60;40.58;;;;;;;-2.26;100.00;95727.72;5072541;28;20055;-70
2023/12/05 03:34:19;;;;;;;135.52;43.08;;;;;;;-2.22;100.00;95724.09;5067087;28;20044;-70
2023/12/05 03:36:45;;;;;;;130.20;42.38;;;;;;;-2.22;100.00;95734.06;5072612;28;20131;-70
2023/12/05 03:39:10;;;;;;;133.40;40.78;;;;;;;-2.18;100.00;95737.69;5075470;28;20060;-69
2023/12/05 03:41:35;;;;;;;133.02;42.53;;;;;;;-2.10;100.00;95736.97;5075039;28;20049;-71
2023/12/05 03:44:01;;;;;;;121.00;40.88;;;;;;;-1.99;100.00;95732.91;5071935;28;20081;-70
2023/12/05 03:46:26;;;;;;;128.95;43.10;;;;;;;-2.03;100.00;95734.63;5066976;28;20040;-69
2023/12/05 03:48:51;;;;;;;108.80;40.17;;;;;;;-2.03;100.00;95734.63;5069521;28;20475;-71
2023/12/05 03:51:17;;;;;;;116.03;38.65;;;;;;;-1.89;100.00;95745.28;5036696;28;20043;-71
2023/12/05 03:53:42;;;;;;;108.88;40.53;;;;;;;-1.76;100.00;95747.03;5070103;28;20043;-72
2023/12/05 03:56:08;;;;;;;98.05;36.25;;;;;;;-1.66;100.00;95745.19;5061204;28;20091;-72
2023/12/05 03:58:33;;;;;;;101.80;37.85;;;;;;;-1.59;100.00;95740.16;5068452;28;20147;-72
2023/12/05 04:00:59;;;;;;;98.00;35.88;;;;;;;-1.63;100.00;95742.66;5063868;28;20040;-71
2023/12/05 04:03:24;;;;;;;99.57;36.40;;;;;;;-1.57;100.00;95740.63;5074883;28;20051;-71
2023/12/05 04:05:49;;;;;;;99.05;36.33;;;;;;;-1.62;100.00;95749.63;5079308;28;20062;-69
2023/12/05 04:08:15;;;;;;;96.13;36.30;;;;;;;-1.58;100.00;95749.78;5067620;28;20494;-69
2023/12/05 04:10:40;;;;;;;94.15;35.75;;;;;;;-1.60;100.00;95739.38;5079082;28;20521;-70
2023/12/05 04:13:06;;;;;;;91.45;35.13;;;;;;;-1.59;100.00;95746.31;5059796;28;20046;-71
2023/12/05 04:15:31;;;;;;;91.75;34.90;;;;;;;-1.48;100.00;95754.06;5071581;28;20040;-70
2023/12/05 04:17:57;;;;;;;88.40;33.85;;;;;;;-1.58;100.00;95755.16;5079457;28;20079;-70
2023/12/05 04:20:22;;;;;;;91.45;34.05;;;;;;;-1.56;100.00;95756.44;5066390;28;20333;-71
2023/12/05 04:22:48;;;;;;;93.47;36.55;;;;;;;-1.58;100.00;95763.22;5077769;28;20597;-71
2023/12/05 04:25:14;;;;;;;91.15;34.13;;;;;;;-1.49;100.00;95761.34;5061721;28;20063;-71
2023/12/05 04:27:39;;;;;;;96.38;35.92;;;;;;;-1.35;100.00;95769.28;5078317;28;20135;-70
2023/12/05 04:30:05;;;;;;;90.30;35.67;;;;;;;-1.33;100.00;95774.34;5067220;28;20036;-70
2023/12/05 04:32:31;;;;;;;95.00;34.95;;;;;;;-1.39;100.00;95781.75;5063024;28;20041;-70
2023/12/05 04:34:56;;;;;;;91.82;35.15;;;;;;;-1.35;100.00;95783.50;5079541;28;20109;-68
2023/12/05 04:37:21;;;;;;;85.30;32.03;;;;;;;-1.30;100.00;95779.88;5048074;28;20584;-68
2023/12/05 04:39:47;;;;;;;92.30;33.13;;;;;;;-1.24;100.00;95788.56;5068157;28;20054;-70
2023/12/05 04:42:12;;;;;;;82.50;32.45;;;;;;;-1.20;100.00;95801.09;5045192;28;20123;-70
2023/12/05 04:44:37;;;;;;;84.78;33.55;;;;;;;-1.02;100.00;95799.22;5060359;28;20052;-69
2023/12/05 04:47:03;;;;;;;88.70;31.52;;;;;;;-0.99;100.00;95792.41;5072134;28;20135;-67
2023/12/05 04:49:33;;;;;;;77.80;31.15;;;;;;;-1.05;100.00;95791.78;5062960;28;20048;-70
2023/12/05 04:51:58;;;;;;;79.72;32.33;;;;;;;-1.10;100.00;95802.66;5056053;28;20124;-69
2023/12/05 04:54:24;;;;;;;72.70;32.10;;;;;;;-1.11;100.00;95790.34;5067081;28;20100;-70
2023/12/05 04:56:49;;;;;;;85.80;32.53;;;;;;;-1.07;100.00;95794.00;5054570;28;20471;-72
2023/12/05 04:59:15;;;;;;;82.22;31.25;;;;;;;-1.06;100.00;95778.66;5061351;28;20099;-70
2023/12/05 05:01:40;;;;;;;85.82;34.70;;;;;;;-1.33;100.00;95777.03;5058797;28;20131;-69
2023/12/05 05:04:05;;;;;;;79.15;32.42;;;;;;;-1.41;100.00;95783.97;5066376;28;20043;-69
2023/12/05 05:06:30;;;;;;;82.47;31.70;;;;;;;-1.33;100.00;95782.38;5077692;28;20042;-70
2023/12/05 05:08:56;;;;;;;82.40;32.42;;;;;;;-1.42;100.00;95780.50;5071295;28;20119;-71
2023/12/05 05:11:21;;;;;;;90.95;33.55;;;;;;;-1.43;100.00;95789.63;5061018;28;20073;-71
2023/12/05 05:13:47;;;;;;;85.53;32.42;;;;;;;-1.40;100.00;95790.94;5070370;28;20036;-71
2023/12/05 05:16:12;;;;;;;92.95;34.15;;;;;;;-1.43;100.00;95781.56;5061149;28;20024;-71
2023/12/05 05:18:37;;;;;;;89.15;34.00;;;;;;;-1.35;100.00;95777.34;5057341;28;20123;-70
2023/12/05 05:21:06;;;;;;;80.38;31.13;;;;;;;-1.25;100.00;95782.41;5041129;28;20113;-68
2023/12/05 05:23:32;;;;;;;82.15;31.95;;;;;;;-1.20;100.00;95768.06;5070954;28;20040;-67
2023/12/05 05:25:58;;;;;;;77.65;31.88;;;;;;;-1.19;100.00;95775.00;5045212;28;20034;-69
2023/12/05 05:28:23;;;;;;;76.00;30.65;;;;;;;-1.18;100.00;95771.22;5068304;28;20124;-68
2023/12/05 05:30:48;;;;;;;78.85;30.73;;;;;;;-1.12;100.00;95758.41;5051657;28;20051;-69
2023/12/05 05:33:14;;;;;;;75.80;31.85;;;;;;;-1.14;100.00;95769.47;5035436;28;20773;-69
2023/12/05 05:35:40;;;;;;;93.50;37.67;;;;;;;-1.18;100.00;95768.53;5068034;28;20469;-70
2023/12/05 05:38:05;;;;;;;83.95;32.85;;;;;;;-1.30;100.00;95765.66;5054104;28;20060;-67
2023/12/05 05:40:31;;;;;;;84.82;33.28;;;;;;;-1.54;100.00;95767.66;5055524;28;20097;-70
2023/12/05 05:42:56;;;;;;;90.72;33.80;;;;;;;-1.60;100.00;95773.50;5051978;28;20392;-68
2023/12/05 05:45:22;;;;;;;112.90;39.97;;;;;;;-1.61;100.00;95763.84;5048065;28;20049;-68
2023/12/05 05:47:47;;;;;;;105.28;36.45;;;;;;;-1.58;100.00;95772.06;5069358;28;20131;-69
2023/12/05 05:50:13;;;;;;;112.28;40.05;;;;;;;-1.50;100.00;95775.09;5068362;28;20095;-69
2023/12/05 05:52:38;;;;;;;111.80;36.95;;;;;;;-1.38;100.00;95780.66;5075983;28;20751;-69
2023/12/05 05:55:04;;;;;;;108.57;37.58;;;;;;;-1.33;100.00;95782.38;5068155;28;20097;-67
2023/12/05 05:57:31;;;;;;;93.68;36.30;;;;;;;-1.29;100.00;95788.75;5079924;28;20044;-70
2023/12/05 05:59:57;;;;;;;113.72;41.70;;;;;;;-1.37;100.00;95787.59;5070138;28;20071;-70
2023/12/05 06:02:22;;;;;;;123.60;40.33;;;;;;;-1.35;100.00;95794.25;5072892;28;20150;-67
2023/12/05 06:04:47;;;;;;;114.20;38.55;;;;;;;-1.30;100.00;95790.63;5085559;28;20040;-69
2023/12/05 06:07:14;;;;;;;109.68;37.85;;;;;;;-1.16;100.00;95796.66;5064571;28;20399;-69
2023/12/05 06:09:39;;;;;;;102.60;36.15;;;;;;;-1.04;100.00;95811.41;5078364;28;20241;-69
2023/12/05 06:12:05;;;;;;;98.32;36.20;;;;;;;-0.98;100.00;95813.59;5060635;28;20127;-68
2023/12/05 06:14:30;;;;;;;96.55;36.33;;;;;;;-0.88;100.00;95806.34;5074494;28;20394;-69
2023/12/05 06:16:56;;;;;;;91.13;35.25;;;;;;;-0.83;100.00;95811.56;5072312;28;20093;-68
2023/12/05 06:19:21;;;;;;;89.85;37.00;;;;;;;-0.70;100.00;95812.53;5062760;28;20122;-68
2023/12/05 06:21:46;;;;;;;92.55;35.63;;;;;;;-0.70;100.00;95816.03;5079133;28;20719;-70
2023/12/05 06:24:12;;;;;;;98.53;34.67;;;;;;;-0.67;100.00;95820.75;5062090;28;20501;-69
2023/12/05 06:26:39;;;;;;;100.45;36.60;;;;;;;-0.69;100.00;95820.28;5044826;28;20048;-71
2023/12/05 06:29:05;;;;;;;86.40;33.40;;;;;;;-0.63;100.00;95821.72;5062815;28;20402;-66
2023/12/05 06:31:31;;;;;;;79.38;32.25;;;;;;;-0.50;100.00;95822.69;5074842;28;20048;-69
2023/12/05 06:33:56;;;;;;;88.22;32.67;;;;;;;-0.47;100.00;95818.56;5052613;28;20119;-70
2023/12/05 06:36:21;;;;;;;81.90;32.67;;;;;;;-0.39;100.00;95823.16;5063065;28;20788;-70
2023/12/05 06:38:47;;;;;;;84.63;33.90;;;;;;;-0.46;100.00;95829.00;5046036;28;20092;-70
2023/12/05 06:41:12;;;;;;;74.18;30.13;;;;;;;-0.51;100.00;95817.63;5072238;28;20055;-69
2023/12/05 06:43:38;;;;;;;75.38;32.22;;;;;;;-0.62;100.00;95820.59;5066572;28;20044;-69
2023/12/05 06:46:03;;;;;;;73.65;31.27;;;;;;;-0.75;100.00;95826.16;5067606;28;20099;-67
2023/12/05 06:48:29;;;;;;;71.60;30.60;;;;;;;-0.97;100.00;95830.56;5068682;28;20044;-70
2023/12/05 06:50:54;;;;;;;88.45;33.92;;;;;;;-1.12;100.00;95829.06;5063016;28;20044;-69
2023/12/05 06:53:19;;;;;;;99.05;37.13;;;;;;;-1.28;100.00;95830.59;5070873;28;20071;-69
2023/12/05 06:55:47;;;;;;;88.43;32.97;;;;;;;-1.26;100.00;95828.41;5071063;28;20040;-67
2023/12/05 06:58:12;;;;;;;92.38;34.63;;;;;;;-1.26;100.00;95826.53;5079746;28;20036;-69
2023/12/05 07:00:38;;;;;;;93.82;34.45;;;;;;;-1.17;100.00;95830.03;5074509;28;20047;-70
2023/12/05 07:03:03;;;;;;;85.22;32.10;;;;;;;-1.01;100.00;95829.56;5068110;28;20067;-68
2023/12/05 07:05:29;;;;;;;90.55;34.38;;;;;;;-0.68;100.00;95846.09;5061007;28;20100;-71
2023/12/05 07:07:54;;;;;;;85.95;33.25;;;;;;;-0.64;100.00;95830.13;5067185;28;20040;-72
2023/12/05 07:10:20;;;;;;;83.20;33.45;;;;;;;-0.84;100.00;95834.19;5063795;28;20079;-69
2023/12/05 07:12:45;;;;;;;75.07;30.13;;;;;;;-0.85;100.00;95843.38;5070864;28;20044;-69
2023/12/05 07:15:11;;;;;;;85.63;31.52;;;;;;;-0.72;100.00;95842.44;5043027;28;20040;-69
2023/12/05 07:17:37;;;;;;;87.20;32.80;;;;;;;-0.85;100.00;95841.47;5053684;28;20044;-69
2023/12/05 07:20:03;;;;;;;85.47;32.45;;;;;;;-0.88;100.00;95836.72;5058829;28;20071;-68
2023/12/05 07:22:28;;;;;;;88.68;35.10;;;;;;;-0.93;100.00;95846.84;5065027;28;20048;-71
2023/12/05 07:24:54;;;;;;;92.43;35.10;;;;;;;-0.70;100.00;95850.19;5072903;28;20036;-70
2023/12/05 07:27:19;;;;;;;88.15;33.25;;;;;;;-0.66;100.00;95860.00;5071402;28;20082;-71
2023/12/05 07:29:45;;;;;;;98.00;38.10;;;;;;;-0.78;100.00;95859.81;5065205;28;20095;-70
2023/12/05 07:32:11;;;;;;;96.05;37.05;;;;;;;-0.93;100.00;95860.28;5069934;28;20040;-74
2023/12/05 07:34:36;;;;;;;93.18;38.17;;;;;;;-1.01;100.00;95857.25;5066901;28;20147;-69
2023/12/05 07:37:03;;;;;;;100.70;38.20;;;;;;;-1.08;100.00;95850.75;5039584;28;20116;-68
2023/12/05 07:39:28;;;;;;;108.78;40.63;;;;;;;-1.09;100.00;95851.84;5062602;28;20047;-70
2023/12/05 07:41:54;;;;;;;110.25;40.80;;;;;;;-1.09;100.00;95858.03;5072105;28;20040;-70
2023/12/05 07:44:19;;;;;;;129.52;52.40;;;;;;;-1.12;100.00;95844.41;5058612;28;20110;-69
2023/12/05 07:46:45;;;;;;;108.10;40.95;;;;;;;-1.10;100.00;95856.41;5063235;28;20037;-71
2023/12/05 07:49:10;;;;;;;101.22;36.28;;;;;;;-0.99;100.00;95881.94;5077718;28;20075;-69
2023/12/05 07:51:36;;;;;;;94.25;36.33;;;;;;;-0.80;100.00;95876.25;5064289;28;20436;-68
2023/12/05 07:54:01;;;;;;;103.18;35.10;;;;;;;-0.56;100.00;95880.41;5080134;28;20043;-69
2023/12/05 07:56:27;;;;;;;92.22;36.55;;;;;;;-0.39;100.00;95891.19;5054545;28;20493;-71
2023/12/05 07:58:52;;;;;;;93.00;37.10;;;;;;;-0.24;100.00;95892.63;5074449;28;20044;-71
2023/12/05 08:01:18;;;;;;;92.30;37.35;;;;;;;-0.28;100.00;95886.31;5075101;28;20429;-71
2023/12/05 08:03:43;;;;;;;94.85;38.15;;;;;;;-0.24;100.00;95881.06;5081530;28;20047;-69
2023/12/05 08:06:09;;;;;;;93.25;36.50;;;;;;;-0.10;100.00;95876.31;5075969;28;20039;-71
2023/12/05 08:08:34;;;;;;;91.90;34.05;;;;;;;0.10;100.00;95879.47;5073894;28;20043;-72
2023/12/05 08:11:01;;;;;;;92.25;35.30;;;;;;;0.26;100.00;95883.25;5080551;28;20123;-69
2023/12/05 08:13:26;;;;;;;85.63;34.58;;;;;;;0.41;100.00;95879.25;5055635;28;20040;-72
2023/12/05 08:15:55;;;;;;;78.53;33.10;;;;;;;0.44;100.00;95878.63;5079235;28;20040;-71
2023/12/05 08:18:20;;;;;;;88.22;33.97;;;;;;;0.59;100.00;95882.69;5075117;28;20121;-71
2023/12/05 08:20:46;;;;;;;84.68;33.28;;;;;;;0.36;100.00;95877.53;5079386;28;20072;-72
2023/12/05 08:23:11;;;;;;;81.82;34.00;;;;;;;0.29;100.00;95882.63;5075214;28;20040;-69
2023/12/05 08:25:36;;;;;;;76.15;33.53;;;;;;;0.37;100.00;95872.94;5062480;28;20047;-71
2023/12/05 08:28:02;;;;;;;77.47;32.75;;;;;;;0.44;100.00;95878.63;5080467;28;20043;-72
2023/12/05 08:30:27;;;;;;;71.25;34.15;;;;;;;0.65;100.00;95886.81;5069698;28;20044;-71
2023/12/05 08:32:56;;;;;;;70.70;30.90;;;;;;;0.98;100.00;95893.50;5080393;28;20062;-72
2023/12/05 08:35:22;;;;;;;78.75;35.28;;;;;;;1.31;100.00;95893.63;5061054;28;20162;-70
2023/12/05 08:37:47;;;;;;;76.38;32.67;;;;;;;1.47;100.00;95886.53;5079897;28;20414;-70
2023/12/05 08:40:13;;;;;;;74.90;32.67;;;;;;;1.49;100.00;95894.31;5090283;28;20032;-70
2023/12/05 08:42:40;;;;;;;69.38;31.83;;;;;;;1.97;100.00;95900.34;5101776;28;20081;-70
2023/12/05 08:45:10;;;;;;;64.80;30.77;;;;;;;2.37;100.00;95897.13;5058831;28;20032;-70
2023/12/05 08:47:37;;;;;;;61.92;30.23;;;;;;;2.35;100.00;95896.66;5079466;28;20367;-71
2023/12/05 08:50:02;;;;;;;55.67;27.75;;;;;;;2.05;100.00;95886.78;5077190;28;20115;-69
2023/12/05 08:52:28;;;;;;;57.08;26.52;;;;;;;2.34;100.00;95893.19;5078181;28;20044;-72
2023/12/05 08:54:53;;;;;;;39.35;18.88;;;;;;;2.54;100.00;95893.44;5071880;28;20059;-73
2023/12/05 08:57:18;;;;;;;32.13;15.20;;;;;;;3.48;100.00;95889.91;5075213;28;20044;-71
2023/12/05 08:59:44;;;;;;;29.48;15.02;;;;;;;3.72;100.00;95889.06;5081739;28;20127;-72
2023/12/05 09:02:09;;;;;;;26.92;13.93;;;;;;;4.13;100.00;95898.00;5087224;28;20085;-72
2023/12/05 09:04:36;;;;;;;33.45;15.95;;;;;;;4.38;100.00;95889.78;5072774;28;20040;-71
2023/12/05 09:07:02;;;;;;;28.42;14.48;;;;;;;4.78;100.00;95897.81;5060013;28;20040;-69
2023/12/05 09:09:27;;;;;;;31.35;17.33;;;;;;;4.91;100.00;95898.50;5076054;28;20044;-70
2023/12/05 09:11:53;;;;;;;37.90;19.58;;;;;;;3.67;100.00;95893.94;5059980;28;20394;-69
2023/12/05 09:14:18;;;;;;;38.00;19.75;;;;;;;3.25;100.00;95903.91;5074527;28;20399;-70
2023/12/05 09:16:43;;;;;;;66.43;33.97;;;;;;;2.90;100.00;95895.44;5079209;28;20416;-71
2023/12/05 09:19:09;;;;;;;42.95;21.65;;;;;;;2.89;100.00;95898.47;5055995;28;20032;-71
2023/12/05 09:21:35;;;;;;;48.55;21.75;;;;;;;3.21;100.00;95907.63;5081044;28;20043;-71
2023/12/05 09:24:00;;;;;;;46.25;22.23;;;;;;;2.90;100.00;95908.97;5080111;28;20040;-71
2023/12/05 09:26:26;;;;;;;44.95;23.77;;;;;;;2.38;100.00;95914.94;5072113;28;20044;-71
2023/12/05 09:28:51;;;;;;;40.70;22.25;;;;;;;2.28;100.00;95922.28;5076692;28;20101;-71
2023/12/05 09:31:16;;;;;;;45.40;23.50;;;;;;;1.92;100.00;95915.59;5034709;28;20044;-71
2023/12/05 09:33:42;;;;;;;48.25;23.90;;;;;;;1.72;100.00;95919.09;5056033;28;20131;-70
2023/12/05 09:36:08;;;;;;;47.50;23.15;;;;;;;1.98;100.00;95920.81;5093617;28;20016;-71
2023/12/05 09:38:33;;;;;;;46.85;24.65;;;;;;;1.93;100.00;95929.91;5071539;28;20048;-71
2023/12/05 09:40:59;;;;;;;46.22;23.05;;;;;;;1.97;100.00;95921.94;5078133;28;20033;-71
2023/12/05 09:43:26;;;;;;;45.75;22.90;;;;;;;1.79;100.00;95916.66;5077076;28;20383;-71
2023/12/05 09:46:10;;;;;;;52.78;24.95;;;;;;;2.13;100.00;95931.03;5082747;28;20063;-70
2023/12/05 09:48:47;;;;;;;57.65;30.17;;;;;;;2.37;100.00;95932.25;5082501;28;20131;-71
2023/12/05 09:51:14;;;;;;;57.17;31.80;;;;;;;2.90;100.00;95936.00;5063487;28;20043;-71
2023/12/05 09:53:41;;;;;;;40.92;21.88;;;;;;;3.65;100.00;95932.19;5075296;28;20045;-69
2023/12/05 09:56:09;;;;;;;56.05;30.08;;;;;;;3.08;100.00;95930.38;5059588;28;20463;-70
2023/12/05 09:58:36;;;;;;;41.08;20.23;;;;;;;3.07;100.00;95929.59;5047555;28;20043;-71
2023/12/05 10:01:04;;;;;;;39.70;19.33;;;;;;;3.05;100.00;95927.22;5063712;28;20051;-70
2023/12/05 10:03:34;;;;;;;50.15;23.15;;;;;;;3.71;100.00;95917.31;5094024;28;20111;-71
2023/12/05 10:06:05;;;;;;;43.13;21.27;;;;;;;4.49;100.00;95920.69;5085311;28;20694;-69
2023/12/05 10:08:31;;;;;;;37.75;20.23;;;;;;;4.97;100.00;95923.47;5082136;28;20086;-71
2023/12/05 10:10:59;;;;;;;43.42;20.80;;;;;;;5.41;100.00;95917.94;5063700;28;20047;-72
2023/12/05 10:13:26;;;;;;;38.10;19.90;;;;;;;5.59;100.00;95912.16;5075328;28;20123;-71
2023/12/05 10:15:52;;;;;;;39.65;21.48;;;;;;;6.60;100.00;95917.78;5080657;28;20055;-71
2023/12/05 10:18:18;;;;;;;30.83;16.50;;;;;;;8.18;100.00;95921.09;5070494;28;20040;-71
2023/12/05 10:20:43;;;;;;;31.10;16.58;;;;;;;8.91;100.00;95925.47;5082987;28;20135;-71
2023/12/05 10:23:09;;;;;;;36.72;15.93;;;;;;;9.16;100.00;95929.25;5057862;28;20054;-71
2023/12/05 10:25:34;;;;;;;22.15;12.70;;;;;;;9.67;98.00;95932.38;5081787;28;20091;-71
2023/12/05 10:28:03;;;;;;;19.95;10.93;;;;;;;10.12;95.39;95925.66;5081451;28;20036;-69
2023/12/05 10:30:33;;;;;;;14.93;8.48;;;;;;;10.65;87.66;95926.31;5067545;28;20053;-69
2023/12/05 10:33:13;;;;;;;16.80;8.60;;;;;;;10.47;88.01;95927.00;5062780;28;20401;-70
2023/12/05 10:35:39;;;;;;;12.23;7.43;;;;;;;10.82;82.40;95925.59;5064573;28;20043;-70
2023/12/05 10:38:06;;;;;;;15.25;7.47;;;;;;;9.88;89.04;95918.84;5080871;28;20156;-70
2023/12/05 10:41:06;;;;;;;16.25;7.35;;;;;;;9.24;96.31;95910.97;5082467;28;20497;-69
2023/12/05 10:43:31;;;;;;;9.13;5.50;;;;;;;8.93;99.81;95906.75;5082797;28;20125;-69
2023/12/05 10:45:57;;;;;;;9.45;5.43;;;;;;;8.77;100.00;95907.78;5081363;28;20048;-70
2023/12/05 10:48:23;;;;;;;10.05;5.38;;;;;;;8.41;100.00;95904.63;5060091;28;20835;-71
2023/12/05 10:50:51;;;;;;;7.93;3.88;;;;;;;7.62;100.00;95894.59;5056410;28;20047;-70
2023/12/05 10:53:17;;;;;;;5.15;2.83;;;;;;;6.82;100.00;95899.91;5077241;28;20055;-71
2023/12/05 10:55:43;;;;;;;6.88;3.08;;;;;;;6.19;100.00;95895.59;5080521;28;20036;-71
2023/12/05 10:58:09;;;;;;;8.98;3.38;;;;;;;6.27;100.00;95891.91;5058944;28;20051;-70
2023/12/05 11:00:36;;;;;;;4.30;2.95;;;;;;;6.44;100.00;95886.00;5059490;28;20559;-71
2023/12/05 11:03:03;;;;;;;6.40;3.33;;;;;;;6.95;100.00;95892.34;5079462;28;20052;-68
2023/12/05 11:05:30;;;;;;;6.75;3.28;;;;;;;7.72;100.00;95880.34;5081513;28;20051;-71